臺北飛航情報區 - 海峽席

METAR RCTP 130900Z 34006KT 290V010 9999 FEW015 BKN060 BKN100 31/27 Q1011 NOSIG RMK A2986=

站台狀態:Online
最後更新:2020-08-13 17:00:01